createdAt,value
2022-12-05T00:00:45.164Z,1389
2022-12-05T00:01:45.405Z,1389
2022-12-05T00:02:45.132Z,1311
2022-12-05T00:03:45.264Z,1311
2022-12-05T00:04:45.182Z,1311
2022-12-05T00:05:45.172Z,1311
2022-12-05T00:06:45.344Z,1311
2022-12-05T00:07:45.195Z,1389
2022-12-05T00:08:45.156Z,1389
2022-12-05T00:09:45.173Z,1389
2022-12-05T00:10:45.137Z,1389
2022-12-05T00:11:45.318Z,1389
2022-12-05T00:12:45.157Z,1265
2022-12-05T00:13:45.149Z,1265
2022-12-05T00:14:45.156Z,1265
2022-12-05T00:15:45.169Z,1265
2022-12-05T00:16:45.417Z,1265
2022-12-05T00:17:45.140Z,1410
2022-12-05T00:18:45.176Z,1410
2022-12-05T00:19:45.141Z,1410
2022-12-05T00:20:45.151Z,1410
2022-12-05T00:21:45.352Z,1410
2022-12-05T00:22:45.183Z,1363
2022-12-05T00:23:45.180Z,1363
2022-12-05T00:24:45.150Z,1363
2022-12-05T00:25:45.176Z,1363
2022-12-05T00:26:45.376Z,1363
2022-12-05T00:27:45.174Z,1288
2022-12-05T00:28:45.180Z,1288
2022-12-05T00:29:45.188Z,1288
2022-12-05T00:30:45.173Z,1288
2022-12-05T00:31:45.420Z,1288
2022-12-05T00:32:45.142Z,1179
2022-12-05T00:33:45.172Z,1179
2022-12-05T00:34:45.161Z,1179
2022-12-05T00:35:45.153Z,1179
2022-12-05T00:36:45.354Z,1179
2022-12-05T00:37:45.157Z,1311
2022-12-05T00:38:45.188Z,1311
2022-12-05T00:39:45.151Z,1311
2022-12-05T00:40:45.153Z,1311
2022-12-05T00:41:45.330Z,1311
2022-12-05T00:42:49.437Z,1398
2022-12-05T00:43:45.148Z,1288
2022-12-05T00:44:45.167Z,1288
2022-12-05T00:45:45.177Z,1288
2022-12-05T00:46:45.360Z,1288
2022-12-05T00:47:45.156Z,1288
2022-12-05T00:48:45.209Z,1288
2022-12-05T00:49:45.181Z,1288
2022-12-05T00:50:45.193Z,1288
2022-12-05T00:51:45.326Z,1288
2022-12-05T00:52:45.151Z,1389
2022-12-05T00:53:45.169Z,1389
2022-12-05T00:54:45.202Z,1389
2022-12-05T00:55:45.148Z,1389
2022-12-05T00:56:45.330Z,1389
2022-12-05T00:57:45.159Z,1288
2022-12-05T00:58:45.156Z,1288
2022-12-05T00:59:45.192Z,1288
2022-12-05T01:00:45.172Z,1288
2022-12-05T01:01:45.400Z,1288
2022-12-05T01:02:45.225Z,1483
2022-12-05T01:03:45.188Z,1483
2022-12-05T01:04:45.157Z,1483
2022-12-05T01:05:45.209Z,1483
2022-12-05T01:06:45.340Z,1483
2022-12-05T01:07:45.206Z,1483
2022-12-05T01:08:45.162Z,1483
2022-12-05T01:09:45.159Z,1483
2022-12-05T01:10:45.190Z,1483
2022-12-05T01:11:45.342Z,1483
2022-12-05T01:12:45.219Z,1509
2022-12-05T01:13:45.187Z,1509
2022-12-05T01:14:45.203Z,1509
2022-12-05T01:15:45.181Z,1509
2022-12-05T01:16:45.391Z,1509
2022-12-05T01:17:45.195Z,1265
2022-12-05T01:18:45.161Z,1265
2022-12-05T01:19:45.164Z,1265
2022-12-05T01:20:45.162Z,1265
2022-12-05T01:21:45.370Z,1265
2022-12-05T01:22:45.172Z,1311
2022-12-05T01:23:45.196Z,1311
2022-12-05T01:24:45.195Z,1311
2022-12-05T01:25:45.193Z,1311
2022-12-05T01:26:45.347Z,1311
2022-12-05T01:27:45.168Z,1201
2022-12-05T01:28:45.255Z,1201
2022-12-05T01:29:45.191Z,1201
2022-12-05T01:30:45.169Z,1201
2022-12-05T01:31:45.400Z,1201
2022-12-05T01:32:45.196Z,1288
2022-12-05T01:33:45.209Z,1288
2022-12-05T01:34:45.200Z,1288
2022-12-05T01:35:45.202Z,1288
2022-12-05T01:36:45.343Z,1288
2022-12-05T01:37:45.191Z,1179
2022-12-05T01:38:45.236Z,1179
2022-12-05T01:39:45.173Z,1179
2022-12-05T01:40:45.179Z,1179
2022-12-05T01:41:45.381Z,1179
2022-12-05T01:42:45.206Z,1106
2022-12-05T01:43:45.171Z,1106
2022-12-05T01:44:45.202Z,1106
2022-12-05T01:45:45.348Z,1106
2022-12-05T01:46:45.387Z,1106
2022-12-05T01:47:45.237Z,1246
2022-12-05T01:48:45.178Z,1246
2022-12-05T01:49:45.175Z,1246
2022-12-05T01:50:45.206Z,1246
2022-12-05T01:51:45.351Z,1246
2022-12-05T01:52:45.186Z,1523
2022-12-05T01:53:45.169Z,1410
2022-12-05T01:54:45.205Z,1410
2022-12-05T01:55:45.217Z,1410
2022-12-05T01:56:45.381Z,1410
2022-12-05T01:57:45.174Z,1410
2022-12-05T01:58:45.175Z,1410
2022-12-05T01:59:45.180Z,1410
2022-12-05T02:00:45.191Z,1410
2022-12-05T02:01:45.434Z,1410
2022-12-05T02:02:45.246Z,1389
2022-12-05T02:03:45.206Z,1389
2022-12-05T02:04:45.203Z,1389
2022-12-05T02:05:45.184Z,1389
2022-12-05T02:06:45.360Z,1389
2022-12-05T02:07:45.217Z,1483
2022-12-05T02:08:45.235Z,1483
2022-12-05T02:09:45.180Z,1483
2022-12-05T02:10:45.256Z,1483
2022-12-05T02:11:45.369Z,1483
2022-12-05T02:12:45.233Z,1389
2022-12-05T02:13:45.216Z,1389
2022-12-05T02:14:45.221Z,1389
2022-12-05T02:15:45.208Z,1389
2022-12-05T02:16:45.445Z,1389
2022-12-05T02:17:45.187Z,1389
2022-12-05T02:18:45.186Z,1389
2022-12-05T02:19:45.197Z,1389
2022-12-05T02:20:45.254Z,1389
2022-12-05T02:21:45.368Z,1389
2022-12-05T02:22:45.198Z,1288
2022-12-05T02:23:45.203Z,1288
2022-12-05T02:24:45.204Z,1288
2022-12-05T02:26:45.404Z,1288
2022-12-05T02:27:45.191Z,1128
2022-12-05T02:28:45.216Z,1128
2022-12-05T02:29:45.192Z,1128
2022-12-05T02:30:45.202Z,1128
2022-12-05T02:31:45.440Z,1128
2022-12-05T02:32:45.208Z,1311
2022-12-05T02:33:45.200Z,1311
2022-12-05T02:34:45.217Z,1311
2022-12-05T02:35:45.195Z,1311
2022-12-05T02:36:45.371Z,1311
2022-12-05T02:37:45.194Z,1179
2022-12-05T02:38:45.218Z,1179
2022-12-05T02:39:45.224Z,1179
2022-12-05T02:40:45.230Z,1179
2022-12-05T02:41:45.382Z,1179
2022-12-05T02:42:45.205Z,1128
2022-12-05T02:43:45.203Z,1128
2022-12-05T02:44:45.192Z,1128
2022-12-05T02:45:45.279Z,1128
2022-12-05T02:46:45.375Z,1128
2022-12-05T02:47:45.213Z,1201
2022-12-05T02:48:45.225Z,1201
2022-12-05T02:49:45.230Z,1328
2022-12-05T02:50:45.220Z,1201
2022-12-05T02:51:45.400Z,1201
2022-12-05T02:52:45.200Z,1336
2022-12-05T02:53:45.193Z,1336
2022-12-05T02:54:45.205Z,1336
2022-12-05T02:56:45.416Z,1336
2022-12-05T02:57:45.227Z,1410
2022-12-05T02:58:45.235Z,1410
2022-12-05T02:59:45.225Z,1410
2022-12-05T03:00:45.203Z,1410
2022-12-05T03:01:45.487Z,1410
2022-12-05T03:02:45.202Z,1288
2022-12-05T03:03:45.351Z,1288
2022-12-05T03:04:45.347Z,1288
2022-12-05T03:05:45.222Z,1288
2022-12-05T03:06:45.390Z,1288
2022-12-05T03:07:45.267Z,1410
2022-12-05T03:08:45.226Z,1410
2022-12-05T03:09:45.231Z,1410
2022-12-05T03:10:45.231Z,1410
2022-12-05T03:11:45.422Z,1410
2022-12-05T03:12:45.207Z,1410
2022-12-05T03:13:45.202Z,1410
2022-12-05T03:14:45.199Z,1410
2022-12-05T03:15:45.229Z,1410
2022-12-05T03:16:45.554Z,1410
2022-12-05T03:17:45.229Z,1311
2022-12-05T03:18:45.240Z,1311
2022-12-05T03:19:45.235Z,1311
2022-12-05T03:21:45.402Z,1311
2022-12-05T03:22:45.235Z,1265
2022-12-05T03:23:45.208Z,1265
2022-12-05T03:24:45.214Z,1265
2022-12-05T03:25:45.238Z,1265
2022-12-05T03:26:45.383Z,1265
2022-12-05T03:27:45.229Z,1483
2022-12-05T03:28:45.215Z,1483
2022-12-05T03:29:45.233Z,1483
2022-12-05T03:30:45.254Z,1483
2022-12-05T03:31:45.413Z,1483
2022-12-05T03:32:45.239Z,1363
2022-12-05T03:33:45.214Z,1363
2022-12-05T03:34:45.225Z,1363
2022-12-05T03:35:45.235Z,1363
2022-12-05T03:36:45.396Z,1457
2022-12-05T03:37:45.209Z,1288
2022-12-05T03:38:45.236Z,1288
2022-12-05T03:39:45.225Z,1288
2022-12-05T03:40:45.208Z,1288
2022-12-05T03:41:45.409Z,1288
2022-12-05T03:42:45.210Z,1509
2022-12-05T03:43:45.226Z,1509
2022-12-05T03:44:45.213Z,1509
2022-12-05T03:45:45.268Z,1509
2022-12-05T03:46:45.391Z,1509
2022-12-05T03:47:45.210Z,1288
2022-12-05T03:48:45.238Z,1288
2022-12-05T03:49:45.246Z,1288
2022-12-05T03:51:45.416Z,1288
2022-12-05T03:53:11.221Z,1179
2022-12-05T03:53:45.234Z,1179
2022-12-05T03:54:45.257Z,1179
2022-12-05T03:55:45.242Z,1179
2022-12-05T03:56:45.405Z,1179
2022-12-05T03:57:45.244Z,1288
2022-12-05T03:58:45.248Z,1288
2022-12-05T03:59:45.233Z,1288
2022-12-05T04:00:45.230Z,1288
2022-12-05T04:01:45.468Z,1288
2022-12-05T04:02:45.247Z,1389
2022-12-05T04:03:45.255Z,1389
2022-12-05T04:04:45.238Z,1389
2022-12-05T04:06:45.428Z,1389
2022-12-05T04:07:45.319Z,1246
2022-12-05T04:08:45.244Z,1246
2022-12-05T04:09:45.251Z,1246
2022-12-05T04:11:45.429Z,1246
2022-12-05T04:12:45.234Z,1179
2022-12-05T04:13:45.233Z,1179
2022-12-05T04:14:45.228Z,1179
2022-12-05T04:16:45.424Z,1179
2022-12-05T04:17:46.959Z,1311
2022-12-05T04:18:45.224Z,1311
2022-12-05T04:19:45.262Z,1311
2022-12-05T04:21:45.444Z,1311
2022-12-05T04:22:45.260Z,1265
2022-12-05T04:23:47.737Z,1265
2022-12-05T04:24:45.226Z,1265
2022-12-05T04:25:45.234Z,1265
2022-12-05T04:26:45.673Z,1504
2022-12-05T04:27:45.228Z,1389
2022-12-05T04:28:45.225Z,1389
2022-12-05T04:29:45.299Z,1389
2022-12-05T04:31:45.466Z,1389
2022-12-05T04:32:45.261Z,1288
2022-12-05T04:33:45.270Z,1288
2022-12-05T04:34:45.265Z,1288
2022-12-05T04:36:45.434Z,1288
2022-12-05T04:37:45.228Z,1265
2022-12-05T04:38:45.256Z,1265
2022-12-05T04:39:45.235Z,1265
2022-12-05T04:41:45.439Z,1265
2022-12-05T04:42:45.233Z,1179
2022-12-05T04:43:45.237Z,1179
2022-12-05T04:44:45.303Z,1179
2022-12-05T04:46:45.509Z,1179
2022-12-05T04:47:45.265Z,1201
2022-12-05T04:48:45.261Z,1201
2022-12-05T04:49:49.282Z,1201
2022-12-05T04:51:45.419Z,1201
2022-12-05T04:52:45.268Z,1288
2022-12-05T04:53:45.302Z,1288
2022-12-05T04:54:45.289Z,1288
2022-12-05T04:56:45.442Z,1288
2022-12-05T04:57:45.241Z,1179
2022-12-05T04:58:45.288Z,1179
2022-12-05T04:59:45.307Z,1179
2022-12-05T05:01:45.580Z,1179
2022-12-05T05:02:45.313Z,1389
2022-12-05T05:03:45.242Z,1389
2022-12-05T05:04:45.245Z,1389
2022-12-05T05:06:45.460Z,1389
2022-12-05T05:07:45.337Z,1410
2022-12-05T05:08:45.288Z,1410
2022-12-05T05:09:45.237Z,1410
2022-12-05T05:11:45.444Z,1410
2022-12-05T05:12:45.252Z,1363
2022-12-05T05:13:45.289Z,1363
2022-12-05T05:14:45.341Z,1363
2022-12-05T05:16:45.450Z,1363
2022-12-05T05:17:45.245Z,1179
2022-12-05T05:18:45.257Z,1179
2022-12-05T05:19:45.249Z,1179
2022-12-05T05:21:45.453Z,1179
2022-12-05T05:22:45.313Z,1157
2022-12-05T05:23:45.259Z,1157
2022-12-05T05:24:45.243Z,1157
2022-12-05T05:26:45.446Z,1157
2022-12-05T05:27:45.249Z,1106
2022-12-05T05:28:45.273Z,1106
2022-12-05T05:29:45.280Z,1106
2022-12-05T05:31:45.486Z,1106
2022-12-05T05:32:45.276Z,1201
2022-12-05T05:33:45.249Z,1344
2022-12-05T05:34:45.310Z,1201
2022-12-05T05:36:45.429Z,1201
2022-12-05T05:37:45.252Z,1201
2022-12-05T05:38:45.261Z,1201
2022-12-05T05:39:45.285Z,1201
2022-12-05T05:41:45.488Z,1201
2022-12-05T05:42:45.269Z,1179
2022-12-05T05:43:45.257Z,1179
2022-12-05T05:44:45.287Z,1179
2022-12-05T05:46:45.539Z,1179
2022-12-05T05:47:45.250Z,1106
2022-12-05T05:48:45.259Z,1106
2022-12-05T05:49:45.252Z,1106
2022-12-05T05:51:45.458Z,1106
2022-12-05T05:52:45.252Z,1088
2022-12-05T05:53:45.258Z,1088
2022-12-05T05:54:45.266Z,1088
2022-12-05T05:56:45.466Z,1088
2022-12-05T05:57:45.263Z,1128
2022-12-05T05:58:45.257Z,1128
2022-12-05T05:59:45.287Z,1128
2022-12-05T06:01:45.438Z,1128
2022-12-05T06:02:45.317Z,1157
2022-12-05T06:03:45.343Z,1157
2022-12-05T06:04:45.265Z,1157
2022-12-05T06:06:45.475Z,1157
2022-12-05T06:07:45.362Z,1179
2022-12-05T06:08:45.290Z,1179
2022-12-05T06:09:45.266Z,1179
2022-12-05T06:11:45.440Z,1179
2022-12-05T06:12:45.301Z,1106
2022-12-05T06:13:45.302Z,1106
2022-12-05T06:14:45.290Z,1106
2022-12-05T06:16:45.523Z,1106
2022-12-05T06:17:45.294Z,1106
2022-12-05T06:18:45.317Z,1106
2022-12-05T06:19:45.290Z,1106
2022-12-05T06:21:45.456Z,1106
2022-12-05T06:22:45.289Z,1128
2022-12-05T06:23:45.279Z,1128
2022-12-05T06:24:45.292Z,1128
2022-12-05T06:26:45.464Z,1128
2022-12-05T06:27:45.259Z,1201
2022-12-05T06:28:45.268Z,1201
2022-12-05T06:29:45.322Z,1201
2022-12-05T06:31:45.538Z,1201
2022-12-05T06:32:45.394Z,1201
2022-12-05T06:33:45.282Z,1201
2022-12-05T06:34:45.317Z,1201
2022-12-05T06:36:45.445Z,1201
2022-12-05T06:37:45.273Z,1128
2022-12-05T06:38:45.301Z,1128
2022-12-05T06:39:45.341Z,1128
2022-12-05T06:41:45.480Z,1128
2022-12-05T06:42:45.304Z,1106
2022-12-05T06:43:45.306Z,1106
2022-12-05T06:44:45.312Z,1106
2022-12-05T06:46:45.452Z,1106
2022-12-05T06:47:45.363Z,1106
2022-12-05T06:48:45.299Z,1106
2022-12-05T06:49:45.310Z,1106
2022-12-05T06:51:45.494Z,1106
2022-12-05T06:52:45.303Z,1106
2022-12-05T06:53:45.281Z,1106
2022-12-05T06:54:45.305Z,1106
2022-12-05T06:56:45.463Z,1106
2022-12-05T06:57:45.308Z,1201
2022-12-05T06:58:45.273Z,1201
2022-12-05T06:59:45.313Z,1201
2022-12-05T07:01:45.637Z,1295
2022-12-05T07:02:45.350Z,1106
2022-12-05T07:03:45.340Z,1106
2022-12-05T07:04:45.287Z,1106
2022-12-05T07:06:50.096Z,1106
2022-12-05T07:07:45.290Z,1179
2022-12-05T07:08:45.305Z,1179
2022-12-05T07:09:45.305Z,1179
2022-12-05T07:11:45.503Z,1311
2022-12-05T07:12:45.348Z,1088
2022-12-05T07:13:45.310Z,1088
2022-12-05T07:14:48.379Z,1088
2022-12-05T07:16:45.559Z,1088
2022-12-05T07:17:45.323Z,1201
2022-12-05T07:18:45.315Z,1201
2022-12-05T07:19:45.312Z,1201
2022-12-05T07:21:45.461Z,1201
2022-12-05T07:22:45.312Z,1288
2022-12-05T07:23:45.318Z,1288
2022-12-05T07:24:45.298Z,1288
2022-12-05T07:26:45.471Z,1288
2022-12-05T07:27:45.288Z,1265
2022-12-05T07:28:45.322Z,1265
2022-12-05T07:29:45.300Z,1265
2022-12-05T07:31:45.588Z,1265
2022-12-05T07:32:45.319Z,1265
2022-12-05T07:33:45.295Z,1265
2022-12-05T07:34:45.289Z,1265
2022-12-05T07:36:45.469Z,1265
2022-12-05T07:37:45.329Z,1157
2022-12-05T07:38:45.295Z,1157
2022-12-05T07:39:45.288Z,1157
2022-12-05T07:41:45.483Z,1157
2022-12-05T07:42:45.303Z,1246
2022-12-05T07:43:45.324Z,1246
2022-12-05T07:44:45.321Z,1261
2022-12-05T07:46:45.500Z,1246
2022-12-05T07:47:45.353Z,1088
2022-12-05T07:48:45.330Z,1088
2022-12-05T07:49:45.337Z,1088
2022-12-05T07:51:45.483Z,1088
2022-12-05T07:52:45.337Z,1075
2022-12-05T07:53:45.303Z,1004
2022-12-05T07:54:45.326Z,1004
2022-12-05T07:56:47.867Z,1004
2022-12-05T07:57:45.310Z,986
2022-12-05T07:58:45.312Z,986
2022-12-05T07:59:45.308Z,986
2022-12-05T08:01:45.595Z,986
2022-12-05T08:02:45.381Z,892
2022-12-05T08:03:45.328Z,892
2022-12-05T08:04:45.336Z,892
2022-12-05T08:06:45.508Z,1049
2022-12-05T08:07:45.341Z,909
2022-12-05T08:08:45.328Z,909
2022-12-05T08:09:45.333Z,909
2022-12-05T08:11:49.659Z,909
2022-12-05T08:12:45.340Z,892
2022-12-05T08:13:45.337Z,892
2022-12-05T08:14:45.332Z,892
2022-12-05T08:16:45.556Z,892
2022-12-05T08:17:45.325Z,909
2022-12-05T08:18:45.354Z,909
2022-12-05T08:19:45.349Z,909
2022-12-05T08:21:45.486Z,909
2022-12-05T08:22:45.363Z,817
2022-12-05T08:23:45.330Z,817
2022-12-05T08:24:45.337Z,817
2022-12-05T08:26:45.503Z,817
2022-12-05T08:27:45.357Z,817
2022-12-05T08:28:45.316Z,817
2022-12-05T08:29:45.308Z,817
2022-12-05T08:31:45.502Z,817
2022-12-05T08:32:45.343Z,901
2022-12-05T08:33:45.344Z,770
2022-12-05T08:34:45.310Z,770
2022-12-05T08:36:45.524Z,770
2022-12-05T08:37:45.316Z,730
2022-12-05T08:38:45.343Z,730
2022-12-05T08:39:45.306Z,730
2022-12-05T08:41:45.518Z,730
2022-12-05T08:42:45.321Z,770
2022-12-05T08:43:45.382Z,770
2022-12-05T08:44:45.363Z,770
2022-12-05T08:46:45.627Z,770
2022-12-05T08:47:45.317Z,770
2022-12-05T08:48:45.324Z,770
2022-12-05T08:49:45.316Z,770
2022-12-05T08:51:45.533Z,770
2022-12-05T08:52:45.313Z,817
2022-12-05T08:53:45.346Z,817
2022-12-05T08:54:45.344Z,817
2022-12-05T08:56:45.519Z,817
2022-12-05T08:57:45.337Z,817
2022-12-05T08:58:45.327Z,817
2022-12-05T08:59:45.341Z,817
2022-12-05T09:01:45.603Z,817
2022-12-05T09:02:45.395Z,774
2022-12-05T09:03:47.981Z,774
2022-12-05T09:04:48.343Z,774
2022-12-05T09:06:45.547Z,774
2022-12-05T09:07:45.395Z,845
2022-12-05T09:08:45.331Z,845
2022-12-05T09:09:45.329Z,845
2022-12-05T09:11:45.535Z,845
2022-12-05T09:12:45.343Z,730
2022-12-05T09:13:45.374Z,730
2022-12-05T09:14:45.337Z,730
2022-12-05T09:16:45.507Z,730
2022-12-05T09:17:45.361Z,730
2022-12-05T09:18:45.354Z,730
2022-12-05T09:19:45.364Z,730
2022-12-05T09:21:45.533Z,730
2022-12-05T09:22:45.327Z,674
2022-12-05T09:23:45.364Z,674
2022-12-05T09:24:45.339Z,674
2022-12-05T09:26:45.541Z,674
2022-12-05T09:27:45.356Z,606
2022-12-05T09:28:45.354Z,606
2022-12-05T09:29:45.419Z,606
2022-12-05T09:31:45.518Z,606
2022-12-05T09:32:45.334Z,571
2022-12-05T09:33:45.350Z,571
2022-12-05T09:34:45.364Z,571
2022-12-05T09:36:45.555Z,571
2022-12-05T09:37:45.359Z,596
2022-12-05T09:38:45.339Z,596
2022-12-05T09:39:45.342Z,596
2022-12-05T09:41:45.543Z,596
2022-12-05T09:42:45.333Z,507
2022-12-05T09:43:45.344Z,507
2022-12-05T09:44:45.381Z,507
2022-12-05T09:46:45.582Z,507
2022-12-05T09:47:45.350Z,481
2022-12-05T09:48:45.368Z,481
2022-12-05T09:49:45.365Z,481
2022-12-05T09:51:46.402Z,481
2022-12-05T09:52:45.369Z,472
2022-12-05T09:53:45.378Z,472
2022-12-05T09:54:45.343Z,472
2022-12-05T09:56:45.543Z,496
2022-12-05T09:57:45.370Z,507
2022-12-05T09:58:45.378Z,507
2022-12-05T09:59:45.360Z,507
2022-12-05T10:01:45.603Z,507
2022-12-05T10:02:45.342Z,491
2022-12-05T10:03:45.363Z,491
2022-12-05T10:04:45.450Z,491
2022-12-05T10:06:45.524Z,491
2022-12-05T10:07:45.398Z,500
2022-12-05T10:08:45.344Z,500
2022-12-05T10:09:45.349Z,585
2022-12-05T10:11:45.557Z,500
2022-12-05T10:12:45.380Z,482
2022-12-05T10:13:45.384Z,482
2022-12-05T10:14:45.362Z,482
2022-12-05T10:16:45.653Z,482
2022-12-05T10:17:45.360Z,432
2022-12-05T10:18:45.349Z,432
2022-12-05T10:19:45.355Z,432
2022-12-05T10:21:45.560Z,432
2022-12-05T10:22:45.399Z,400
2022-12-05T10:23:57.352Z,400
2022-12-05T10:24:45.393Z,400
2022-12-05T10:26:45.554Z,400
2022-12-05T10:27:45.393Z,407
2022-12-05T10:28:45.386Z,407
2022-12-05T10:29:45.393Z,407
2022-12-05T10:31:45.621Z,407
2022-12-05T10:32:48.166Z,434
2022-12-05T10:33:45.366Z,434
2022-12-05T10:34:45.384Z,434
2022-12-05T10:36:45.536Z,434
2022-12-05T10:37:45.384Z,407
2022-12-05T10:38:45.371Z,407
2022-12-05T10:39:45.377Z,407
2022-12-05T10:41:45.536Z,407
2022-12-05T10:42:45.390Z,424
2022-12-05T10:43:45.400Z,424
2022-12-05T10:44:45.367Z,424
2022-12-05T10:46:45.609Z,424
2022-12-05T10:47:45.373Z,495
2022-12-05T10:48:45.360Z,495
2022-12-05T10:49:45.369Z,495
2022-12-05T10:51:45.576Z,495
2022-12-05T10:52:45.395Z,457
2022-12-05T10:53:45.366Z,457
2022-12-05T10:54:45.383Z,457
2022-12-05T10:56:45.571Z,457
2022-12-05T10:57:45.391Z,495
2022-12-05T10:58:45.373Z,495
2022-12-05T10:59:45.371Z,495
2022-12-05T11:01:45.638Z,495
2022-12-05T11:02:45.397Z,451
2022-12-05T11:03:45.365Z,451
2022-12-05T11:04:45.526Z,451
2022-12-05T11:06:45.568Z,451
2022-12-05T11:07:45.515Z,434
2022-12-05T11:09:45.447Z,434
2022-12-05T11:11:45.553Z,434
2022-12-05T11:12:45.397Z,434
2022-12-05T11:13:45.410Z,434
2022-12-05T11:14:45.407Z,434
2022-12-05T11:16:45.675Z,434
2022-12-05T11:17:45.403Z,465
2022-12-05T11:18:45.373Z,465
2022-12-05T11:19:45.385Z,465
2022-12-05T11:21:45.589Z,465
2022-12-05T11:22:48.650Z,400
2022-12-05T11:23:45.388Z,400
2022-12-05T11:24:45.424Z,400
2022-12-05T11:26:45.620Z,400
2022-12-05T11:27:45.402Z,400
2022-12-05T11:28:45.385Z,400
2022-12-05T11:29:45.394Z,400
2022-12-05T11:31:45.591Z,400
2022-12-05T11:32:45.372Z,448
2022-12-05T11:33:45.392Z,448
2022-12-05T11:34:45.417Z,448
2022-12-05T11:36:45.560Z,448
2022-12-05T11:37:45.411Z,448
2022-12-05T11:38:45.420Z,448
2022-12-05T11:39:45.465Z,448
2022-12-05T11:41:45.629Z,448
2022-12-05T11:42:45.419Z,400
2022-12-05T11:43:45.423Z,400
2022-12-05T11:44:45.406Z,400
2022-12-05T11:46:45.654Z,400
2022-12-05T11:47:45.422Z,415
2022-12-05T11:48:45.473Z,415
2022-12-05T11:49:45.459Z,415
2022-12-05T11:51:45.627Z,415
2022-12-05T11:52:45.434Z,400
2022-12-05T11:53:45.423Z,400
2022-12-05T11:55:04.309Z,400
2022-12-05T11:56:45.564Z,400
2022-12-05T11:57:50.532Z,428
2022-12-05T11:58:45.423Z,428
2022-12-05T11:59:45.421Z,428
2022-12-05T12:01:45.648Z,428
2022-12-05T12:02:45.536Z,422
2022-12-05T12:03:45.489Z,422
2022-12-05T12:04:45.415Z,422
2022-12-05T12:06:45.584Z,422
2022-12-05T12:07:45.537Z,400
2022-12-05T12:08:45.438Z,400
2022-12-05T12:09:45.471Z,400
2022-12-05T12:11:45.600Z,400
2022-12-05T12:12:45.427Z,438
2022-12-05T12:13:45.434Z,438
2022-12-05T12:14:45.411Z,471
2022-12-05T12:16:45.720Z,438
2022-12-05T12:17:45.430Z,472
2022-12-05T12:18:45.421Z,472
2022-12-05T12:19:45.418Z,472
2022-12-05T12:21:45.588Z,472
2022-12-05T12:22:45.410Z,541
2022-12-05T12:23:45.403Z,541
2022-12-05T12:24:45.407Z,541
2022-12-05T12:26:45.617Z,541
2022-12-05T12:27:45.427Z,490
2022-12-05T12:28:45.400Z,490
2022-12-05T12:29:45.410Z,490
2022-12-05T12:31:45.723Z,490
2022-12-05T12:32:45.438Z,541
2022-12-05T12:33:45.436Z,541
2022-12-05T12:34:45.444Z,541
2022-12-05T12:36:45.633Z,541
2022-12-05T12:37:45.458Z,481
2022-12-05T12:38:49.799Z,481
2022-12-05T12:39:45.448Z,481
2022-12-05T12:41:45.618Z,481
2022-12-05T12:42:45.446Z,455
2022-12-05T12:43:53.471Z,455
2022-12-05T12:44:45.411Z,455
2022-12-05T12:46:45.596Z,455
2022-12-05T12:47:45.414Z,428
2022-12-05T12:48:45.433Z,428
2022-12-05T12:49:45.413Z,428
2022-12-05T12:51:45.590Z,428
2022-12-05T12:52:45.412Z,428
2022-12-05T12:53:45.430Z,428
2022-12-05T12:55:03.226Z,428
2022-12-05T12:56:45.625Z,428
2022-12-05T12:57:45.438Z,428
2022-12-05T12:58:45.419Z,428
2022-12-05T12:59:45.423Z,428
2022-12-05T13:01:45.699Z,428
2022-12-05T13:02:45.523Z,422
2022-12-05T13:03:50.013Z,422
2022-12-05T13:04:45.440Z,422
2022-12-05T13:06:45.619Z,422
2022-12-05T13:07:45.450Z,472
2022-12-05T13:08:45.465Z,472
2022-12-05T13:09:48.737Z,472
2022-12-05T13:11:45.638Z,472
2022-12-05T13:12:45.442Z,472
2022-12-05T13:13:45.449Z,472
2022-12-05T13:14:45.451Z,472
2022-12-05T13:16:46.216Z,472
2022-12-05T13:17:45.448Z,462
2022-12-05T13:18:45.437Z,462
2022-12-05T13:19:45.442Z,462
2022-12-05T13:21:45.613Z,462
2022-12-05T13:22:45.451Z,462
2022-12-05T13:23:45.432Z,462
2022-12-05T13:24:45.427Z,462
2022-12-05T13:26:45.620Z,462
2022-12-05T13:27:45.445Z,573
2022-12-05T13:28:45.491Z,573
2022-12-05T13:29:45.464Z,573
2022-12-05T13:31:45.687Z,573
2022-12-05T13:32:45.463Z,523
2022-12-05T13:33:45.474Z,523
2022-12-05T13:34:45.465Z,523
2022-12-05T13:36:45.660Z,523
2022-12-05T13:37:45.467Z,490
2022-12-05T13:38:45.466Z,490
2022-12-05T13:39:45.465Z,490
2022-12-05T13:41:45.647Z,490
2022-12-05T13:42:45.516Z,573
2022-12-05T13:43:49.395Z,573
2022-12-05T13:44:45.499Z,573
2022-12-05T13:46:45.641Z,573
2022-12-05T13:47:45.493Z,573
2022-12-05T13:48:45.456Z,573
2022-12-05T13:49:45.471Z,573
2022-12-05T13:51:45.647Z,573
2022-12-05T13:52:45.443Z,573
2022-12-05T13:53:45.471Z,573
2022-12-05T13:54:45.466Z,573
2022-12-05T13:56:45.625Z,573
2022-12-05T13:57:45.458Z,683
2022-12-05T13:58:45.478Z,683
2022-12-05T13:59:45.450Z,683
2022-12-05T14:01:47.776Z,683
2022-12-05T14:02:45.559Z,597
2022-12-05T14:03:45.454Z,597
2022-12-05T14:04:45.481Z,597
2022-12-05T14:06:45.657Z,597
2022-12-05T14:07:45.487Z,508
2022-12-05T14:08:45.525Z,508
2022-12-05T14:09:45.508Z,508
2022-12-05T14:11:45.674Z,508
2022-12-05T14:12:45.521Z,552
2022-12-05T14:13:45.566Z,552
2022-12-05T14:14:45.448Z,552
2022-12-05T14:16:45.697Z,552
2022-12-05T14:17:45.451Z,544
2022-12-05T14:18:45.477Z,544
2022-12-05T14:19:45.453Z,544
2022-12-05T14:21:45.695Z,544
2022-12-05T14:22:45.492Z,573
2022-12-05T14:23:45.522Z,573
2022-12-05T14:24:45.483Z,573
2022-12-05T14:26:45.669Z,573
2022-12-05T14:27:45.485Z,564
2022-12-05T14:28:45.460Z,564
2022-12-05T14:29:45.456Z,564
2022-12-05T14:31:45.686Z,564
2022-12-05T14:32:45.490Z,523
2022-12-05T14:33:45.497Z,523
2022-12-05T14:34:45.467Z,523
2022-12-05T14:36:45.669Z,523
2022-12-05T14:37:49.790Z,588
2022-12-05T14:38:45.493Z,588
2022-12-05T14:39:45.519Z,588
2022-12-05T14:41:45.666Z,588
2022-12-05T14:42:45.490Z,564
2022-12-05T14:43:45.489Z,564
2022-12-05T14:44:45.580Z,564
2022-12-05T14:46:45.664Z,564
2022-12-05T14:47:45.471Z,544
2022-12-05T14:48:47.742Z,544
2022-12-05T14:49:48.499Z,544
2022-12-05T14:51:45.668Z,544
2022-12-05T14:52:45.512Z,564
2022-12-05T14:53:45.495Z,564
2022-12-05T14:54:45.504Z,564
2022-12-05T14:56:45.654Z,564
2022-12-05T14:57:45.494Z,561
2022-12-05T14:58:45.493Z,552
2022-12-05T14:59:45.469Z,552
2022-12-05T15:01:45.695Z,552
2022-12-05T15:02:45.469Z,564
2022-12-05T15:03:45.478Z,564
2022-12-05T15:04:45.512Z,564
2022-12-05T15:06:45.711Z,564
2022-12-05T15:07:45.590Z,597
2022-12-05T15:08:45.507Z,597
2022-12-05T15:09:45.508Z,597
2022-12-05T15:11:45.684Z,597
2022-12-05T15:12:45.505Z,597
2022-12-05T15:13:45.509Z,597
2022-12-05T15:14:45.499Z,597
2022-12-05T15:16:45.652Z,597
2022-12-05T15:17:45.508Z,597
2022-12-05T15:18:45.520Z,597
2022-12-05T15:19:45.504Z,597
2022-12-05T15:21:45.689Z,597
2022-12-05T15:22:45.510Z,588
2022-12-05T15:23:45.506Z,588
2022-12-05T15:24:45.571Z,588
2022-12-05T15:26:47.552Z,588
2022-12-05T15:27:45.479Z,597
2022-12-05T15:28:45.487Z,597
2022-12-05T15:29:45.489Z,597
2022-12-05T15:31:45.661Z,597
2022-12-05T15:32:45.479Z,646
2022-12-05T15:33:45.510Z,646
2022-12-05T15:34:45.485Z,646
2022-12-05T15:36:45.698Z,646
2022-12-05T15:37:45.481Z,656
2022-12-05T15:38:45.487Z,656
2022-12-05T15:39:45.543Z,656
2022-12-05T15:41:45.684Z,656
2022-12-05T15:42:45.503Z,656
2022-12-05T15:43:45.515Z,730
2022-12-05T15:44:45.487Z,656
2022-12-05T15:46:45.746Z,656
2022-12-05T15:47:45.521Z,696
2022-12-05T15:48:45.516Z,696
2022-12-05T15:49:45.529Z,696
2022-12-05T15:51:45.691Z,696
2022-12-05T15:52:45.500Z,696
2022-12-05T15:53:45.510Z,696
2022-12-05T15:54:45.493Z,698
2022-12-05T15:56:45.702Z,696
2022-12-05T15:57:45.507Z,741
2022-12-05T15:58:45.494Z,741